sensor_id;sensor_type;location;lat;lon;timestamp;pressure;altitude;pressure_sealevel;temperature;humidity
55271;BME280;41132;47.162;9.470;2022-10-17T00:02:20;97138.22;;;12.80;100.00
55271;BME280;41132;47.162;9.470;2022-10-17T00:04:45;97146.81;;;12.64;100.00
55271;BME280;41132;47.162;9.470;2022-10-17T00:07:12;97143.38;;;12.63;100.00
55271;BME280;41132;47.162;9.470;2022-10-17T00:09:41;97136.56;;;12.79;100.00
55271;BME280;41132;47.162;9.470;2022-10-17T00:12:06;97144.16;;;12.82;100.00
55271;BME280;41132;47.162;9.470;2022-10-17T00:14:32;97145.28;;;12.79;100.00
55271;BME280;41132;47.162;9.470;2022-10-17T00:16:57;97149.44;;;12.82;100.00
55271;BME280;41132;47.162;9.470;2022-10-17T00:19:22;97153.91;;;12.89;100.00
55271;BME280;41132;47.162;9.470;2022-10-17T00:21:48;97151.53;;;12.78;100.00
55271;BME280;41132;47.162;9.470;2022-10-17T00:24:13;97152.06;;;12.82;100.00
55271;BME280;41132;47.162;9.470;2022-10-17T00:26:39;97132.56;;;12.92;100.00
55271;BME280;41132;47.162;9.470;2022-10-17T00:29:04;97143.22;;;12.91;100.00
55271;BME280;41132;47.162;9.470;2022-10-17T00:31:29;97147.94;;;13.05;100.00
55271;BME280;41132;47.162;9.470;2022-10-17T00:33:55;97154.34;;;13.03;100.00
55271;BME280;41132;47.162;9.470;2022-10-17T00:36:22;97165.41;;;13.06;100.00
55271;BME280;41132;47.162;9.470;2022-10-17T00:38:58;97163.16;;;12.93;100.00
55271;BME280;41132;47.162;9.470;2022-10-17T00:41:27;97159.09;;;12.99;100.00
55271;BME280;41132;47.162;9.470;2022-10-17T00:47:01;97152.47;;;12.95;100.00
55271;BME280;41132;47.162;9.470;2022-10-17T00:49:31;97157.44;;;12.98;100.00
55271;BME280;41132;47.162;9.470;2022-10-17T00:52:01;97156.78;;;13.22;100.00
55271;BME280;41132;47.162;9.470;2022-10-17T00:54:31;97160.69;;;13.18;100.00
55271;BME280;41132;47.162;9.470;2022-10-17T00:56:58;97139.72;;;13.08;100.00
55271;BME280;41132;47.162;9.470;2022-10-17T00:59:24;97158.19;;;13.08;100.00
55271;BME280;41132;47.162;9.470;2022-10-17T01:04:32;97150.00;;;12.93;100.00
55271;BME280;41132;47.162;9.470;2022-10-17T01:06:57;97143.34;;;12.81;100.00
55271;BME280;41132;47.162;9.470;2022-10-17T01:09:24;97161.34;;;12.94;100.00
55271;BME280;41132;47.162;9.470;2022-10-17T01:12:03;97155.06;;;12.87;100.00
55271;BME280;41132;47.162;9.470;2022-10-17T01:19:49;97166.94;;;13.17;100.00
55271;BME280;41132;47.162;9.470;2022-10-17T01:22:38;97168.06;;;13.14;100.00
55271;BME280;41132;47.162;9.470;2022-10-17T01:30:49;97146.41;;;12.94;100.00
55271;BME280;41132;47.162;9.470;2022-10-17T01:33:39;97156.69;;;13.06;100.00
55271;BME280;41132;47.162;9.470;2022-10-17T01:36:30;97158.19;;;13.08;100.00
55271;BME280;41132;47.162;9.470;2022-10-17T01:39:12;97146.00;;;12.89;100.00
55271;BME280;41132;47.162;9.470;2022-10-17T01:41:54;97148.34;;;12.92;100.00
55271;BME280;41132;47.162;9.470;2022-10-17T01:47:16;97137.72;;;13.02;100.00
55271;BME280;41132;47.162;9.470;2022-10-17T01:49:44;97143.09;;;12.92;100.00
55271;BME280;41132;47.162;9.470;2022-10-17T01:52:14;97129.94;;;13.27;100.00
55271;BME280;41132;47.162;9.470;2022-10-17T01:54:49;97136.25;;;13.34;100.00
55271;BME280;41132;47.162;9.470;2022-10-17T01:57:31;97131.53;;;13.38;100.00
55271;BME280;41132;47.162;9.470;2022-10-17T01:59:59;97134.78;;;13.40;100.00
55271;BME280;41132;47.162;9.470;2022-10-17T02:02:26;97131.47;;;13.29;100.00
55271;BME280;41132;47.162;9.470;2022-10-17T02:04:54;97134.41;;;13.26;100.00
55271;BME280;41132;47.162;9.470;2022-10-17T02:07:21;97115.41;;;13.23;100.00
55271;BME280;41132;47.162;9.470;2022-10-17T02:09:46;97109.41;;;13.12;100.00
55271;BME280;41132;47.162;9.470;2022-10-17T02:13:18;97128.84;;;13.29;100.00
55271;BME280;41132;47.162;9.470;2022-10-17T02:21:30;97115.38;;;13.41;100.00
55271;BME280;41132;47.162;9.470;2022-10-17T02:24:23;97110.44;;;13.38;100.00
55271;BME280;41132;47.162;9.470;2022-10-17T02:27:10;97098.25;;;13.19;100.00
55271;BME280;41132;47.162;9.470;2022-10-17T02:29:49;97103.13;;;13.31;100.00
55271;BME280;41132;47.162;9.470;2022-10-17T02:32:27;97118.00;;;13.14;100.00
55271;BME280;41132;47.162;9.470;2022-10-17T02:35:00;97111.50;;;13.27;100.00
55271;BME280;41132;47.162;9.470;2022-10-17T02:37:29;97115.09;;;13.26;100.00
55271;BME280;41132;47.162;9.470;2022-10-17T02:39:57;97115.50;;;13.31;100.00
55271;BME280;41132;47.162;9.470;2022-10-17T02:42:23;97119.56;;;13.60;100.00
55271;BME280;41132;47.162;9.470;2022-10-17T02:44:51;97108.47;;;13.48;100.00
55271;BME280;41132;47.162;9.470;2022-10-17T02:47:26;97112.13;;;13.47;100.00
55271;BME280;41132;47.162;9.470;2022-10-17T02:49:55;97113.41;;;13.51;100.00
55271;BME280;41132;47.162;9.470;2022-10-17T02:52:39;97135.00;;;13.46;100.00
55271;BME280;41132;47.162;9.470;2022-10-17T02:55:40;97116.75;;;13.27;100.00
55271;BME280;41132;47.162;9.470;2022-10-17T02:58:15;97137.31;;;13.23;100.00
55271;BME280;41132;47.162;9.470;2022-10-17T03:00:43;97125.97;;;13.23;100.00
55271;BME280;41132;47.162;9.470;2022-10-17T03:05:47;97126.09;;;13.13;100.00
55271;BME280;41132;47.162;9.470;2022-10-17T03:08:12;97125.63;;;13.18;100.00
55271;BME280;41132;47.162;9.470;2022-10-17T03:10:38;97135.63;;;13.14;100.00
55271;BME280;41132;47.162;9.470;2022-10-17T03:13:03;97122.78;;;13.11;100.00
55271;BME280;41132;47.162;9.470;2022-10-17T03:15:29;97125.81;;;12.98;100.00
55271;BME280;41132;47.162;9.470;2022-10-17T03:17:54;97136.22;;;13.00;100.00
55271;BME280;41132;47.162;9.470;2022-10-17T03:20:19;97135.47;;;13.15;100.00
55271;BME280;41132;47.162;9.470;2022-10-17T03:22:45;97132.78;;;13.07;100.00
55271;BME280;41132;47.162;9.470;2022-10-17T03:25:10;97144.31;;;13.06;100.00
55271;BME280;41132;47.162;9.470;2022-10-17T03:27:36;97124.06;;;13.07;100.00
55271;BME280;41132;47.162;9.470;2022-10-17T03:30:02;97163.91;;;13.04;100.00
55271;BME280;41132;47.162;9.470;2022-10-17T03:32:27;97163.44;;;13.08;100.00
55271;BME280;41132;47.162;9.470;2022-10-17T03:34:53;97161.06;;;12.97;100.00
55271;BME280;41132;47.162;9.470;2022-10-17T03:37:18;97152.78;;;12.92;100.00
55271;BME280;41132;47.162;9.470;2022-10-17T03:39:43;97146.16;;;12.62;100.00
55271;BME280;41132;47.162;9.470;2022-10-17T03:42:12;97151.75;;;12.85;100.00
55271;BME280;41132;47.162;9.470;2022-10-17T03:44:37;97149.06;;;12.77;100.00
55271;BME280;41132;47.162;9.470;2022-10-17T03:47:03;97151.25;;;12.81;100.00
55271;BME280;41132;47.162;9.470;2022-10-17T03:49:28;97157.66;;;12.79;100.00
55271;BME280;41132;47.162;9.470;2022-10-17T03:51:53;97139.97;;;12.71;100.00
55271;BME280;41132;47.162;9.470;2022-10-17T03:54:19;97153.63;;;12.92;100.00
55271;BME280;41132;47.162;9.470;2022-10-17T03:56:44;97151.19;;;12.99;100.00
55271;BME280;41132;47.162;9.470;2022-10-17T03:59:14;97157.91;;;13.20;100.00
55271;BME280;41132;47.162;9.470;2022-10-17T04:01:40;97148.44;;;13.09;100.00
55271;BME280;41132;47.162;9.470;2022-10-17T04:04:05;97148.94;;;13.12;100.00
55271;BME280;41132;47.162;9.470;2022-10-17T04:06:30;97151.56;;;13.04;100.00
55271;BME280;41132;47.162;9.470;2022-10-17T04:08:56;97165.09;;;13.09;100.00
55271;BME280;41132;47.162;9.470;2022-10-17T04:11:21;97165.75;;;13.11;100.00
55271;BME280;41132;47.162;9.470;2022-10-17T04:13:52;97171.50;;;13.33;99.11
55271;BME280;41132;47.162;9.470;2022-10-17T04:16:18;97176.91;;;13.57;89.78
55271;BME280;41132;47.162;9.470;2022-10-17T04:18:43;97169.19;;;13.56;93.56
55271;BME280;41132;47.162;9.470;2022-10-17T04:21:10;97187.53;;;13.40;100.00
55271;BME280;41132;47.162;9.470;2022-10-17T04:23:38;97168.72;;;13.34;100.00
55271;BME280;41132;47.162;9.470;2022-10-17T04:26:04;97182.56;;;13.36;100.00
55271;BME280;41132;47.162;9.470;2022-10-17T04:28:31;97183.44;;;13.45;100.00
55271;BME280;41132;47.162;9.470;2022-10-17T04:30:57;97187.06;;;13.44;100.00
55271;BME280;41132;47.162;9.470;2022-10-17T04:33:23;97175.66;;;13.35;100.00
55271;BME280;41132;47.162;9.470;2022-10-17T04:36:09;97189.22;;;13.23;100.00
55271;BME280;41132;47.162;9.470;2022-10-17T04:38:35;97182.47;;;13.20;100.00
55271;BME280;41132;47.162;9.470;2022-10-17T04:41:02;97196.81;;;13.26;100.00
55271;BME280;41132;47.162;9.470;2022-10-17T04:43:29;97186.50;;;13.32;100.00
55271;BME280;41132;47.162;9.470;2022-10-17T04:45:59;97204.66;;;13.35;100.00
55271;BME280;41132;47.162;9.470;2022-10-17T04:48:26;97201.78;;;13.55;98.37
55271;BME280;41132;47.162;9.470;2022-10-17T04:50:57;97192.78;;;13.40;100.00
55271;BME280;41132;47.162;9.470;2022-10-17T04:53:23;97201.38;;;13.42;100.00
55271;BME280;41132;47.162;9.470;2022-10-17T04:55:49;97212.72;;;13.34;100.00
55271;BME280;41132;47.162;9.470;2022-10-17T04:58:15;97221.66;;;13.41;100.00
55271;BME280;41132;47.162;9.470;2022-10-17T05:00:40;97215.75;;;13.47;100.00
55271;BME280;41132;47.162;9.470;2022-10-17T05:03:06;97218.19;;;13.41;100.00
55271;BME280;41132;47.162;9.470;2022-10-17T05:05:32;97197.59;;;13.18;100.00
55271;BME280;41132;47.162;9.470;2022-10-17T05:07:57;97215.50;;;13.32;100.00
55271;BME280;41132;47.162;9.470;2022-10-17T05:10:23;97213.59;;;13.43;99.19
55271;BME280;41132;47.162;9.470;2022-10-17T05:12:49;97208.53;;;13.49;95.92
55271;BME280;41132;47.162;9.470;2022-10-17T05:15:15;97217.72;;;13.45;100.00
55271;BME280;41132;47.162;9.470;2022-10-17T05:17:40;97205.28;;;13.11;100.00
55271;BME280;41132;47.162;9.470;2022-10-17T05:20:07;97247.44;;;13.29;100.00
55271;BME280;41132;47.162;9.470;2022-10-17T05:22:32;97228.69;;;13.14;100.00
55271;BME280;41132;47.162;9.470;2022-10-17T05:24:57;97235.91;;;13.12;100.00
55271;BME280;41132;47.162;9.470;2022-10-17T05:27:23;97245.56;;;13.22;100.00
55271;BME280;41132;47.162;9.470;2022-10-17T05:29:48;97217.94;;;13.08;100.00
55271;BME280;41132;47.162;9.470;2022-10-17T05:32:17;97241.41;;;13.37;100.00
55271;BME280;41132;47.162;9.470;2022-10-17T05:34:42;97232.75;;;13.27;100.00
55271;BME280;41132;47.162;9.470;2022-10-17T05:37:07;97234.34;;;13.20;100.00
55271;BME280;41132;47.162;9.470;2022-10-17T05:39:33;97245.13;;;13.08;100.00
55271;BME280;41132;47.162;9.470;2022-10-17T05:41:58;97252.81;;;13.20;100.00
55271;BME280;41132;47.162;9.470;2022-10-17T05:44:23;97256.75;;;13.24;100.00
55271;BME280;41132;47.162;9.470;2022-10-17T05:46:49;97237.66;;;13.22;100.00
55271;BME280;41132;47.162;9.470;2022-10-17T05:49:15;97260.94;;;13.26;100.00
55271;BME280;41132;47.162;9.470;2022-10-17T05:51:40;97242.44;;;13.00;100.00
55271;BME280;41132;47.162;9.470;2022-10-17T05:54:06;97250.44;;;12.90;100.00
55271;BME280;41132;47.162;9.470;2022-10-17T05:56:32;97254.94;;;12.98;100.00
55271;BME280;41132;47.162;9.470;2022-10-17T05:58:57;97259.97;;;13.09;100.00
55271;BME280;41132;47.162;9.470;2022-10-17T06:01:23;97267.09;;;13.17;100.00
55271;BME280;41132;47.162;9.470;2022-10-17T06:03:48;97265.22;;;13.09;100.00
55271;BME280;41132;47.162;9.470;2022-10-17T06:06:14;97275.69;;;13.01;100.00
55271;BME280;41132;47.162;9.470;2022-10-17T06:08:40;97282.84;;;13.27;100.00
55271;BME280;41132;47.162;9.470;2022-10-17T06:11:05;97279.66;;;13.23;100.00
55271;BME280;41132;47.162;9.470;2022-10-17T06:13:31;97285.84;;;13.14;100.00
55271;BME280;41132;47.162;9.470;2022-10-17T06:15:56;97261.63;;;13.10;100.00
55271;BME280;41132;47.162;9.470;2022-10-17T06:18:22;97288.34;;;13.15;100.00
55271;BME280;41132;47.162;9.470;2022-10-17T06:20:47;97277.72;;;13.07;100.00
55271;BME280;41132;47.162;9.470;2022-10-17T06:23:16;97287.75;;;13.22;100.00
55271;BME280;41132;47.162;9.470;2022-10-17T06:25:41;97281.63;;;13.21;100.00
55271;BME280;41132;47.162;9.470;2022-10-17T06:28:07;97281.63;;;13.21;100.00
55271;BME280;41132;47.162;9.470;2022-10-17T06:30:32;97293.44;;;13.17;100.00
55271;BME280;41132;47.162;9.470;2022-10-17T06:32:57;97275.53;;;13.03;100.00
55271;BME280;41132;47.162;9.470;2022-10-17T06:35:23;97300.69;;;13.15;100.00
55271;BME280;41132;47.162;9.470;2022-10-17T06:37:48;97293.63;;;12.98;100.00
55271;BME280;41132;47.162;9.470;2022-10-17T06:40:14;97319.16;;;13.15;100.00
55271;BME280;41132;47.162;9.470;2022-10-17T07:05:57;97321.34;;;13.64;100.00
55271;BME280;41132;47.162;9.470;2022-10-17T07:08:23;97329.59;;;13.61;99.97
55271;BME280;41132;47.162;9.470;2022-10-17T07:10:49;97326.94;;;13.61;100.00
55271;BME280;41132;47.162;9.470;2022-10-17T07:13:15;97331.59;;;13.67;98.86
55271;BME280;41132;47.162;9.470;2022-10-17T07:15:41;97341.19;;;13.76;100.00
55271;BME280;41132;47.162;9.470;2022-10-17T07:18:06;97350.94;;;13.75;100.00
55271;BME280;41132;47.162;9.470;2022-10-17T07:20:32;97352.97;;;13.82;100.00
55271;BME280;41132;47.162;9.470;2022-10-17T07:22:59;97354.19;;;13.95;100.00
55271;BME280;41132;47.162;9.470;2022-10-17T07:25:24;97335.59;;;13.97;100.00
55271;BME280;41132;47.162;9.470;2022-10-17T07:27:51;97344.66;;;14.03;100.00
55271;BME280;41132;47.162;9.470;2022-10-17T07:30:17;97338.56;;;14.02;100.00
55271;BME280;41132;47.162;9.470;2022-10-17T07:32:42;97347.00;;;14.06;100.00
55271;BME280;41132;47.162;9.470;2022-10-17T07:35:08;97351.72;;;14.28;100.00
55271;BME280;41132;47.162;9.470;2022-10-17T07:37:34;97352.47;;;14.47;100.00
55271;BME280;41132;47.162;9.470;2022-10-17T07:40:00;97359.03;;;14.77;100.00
55271;BME280;41132;47.162;9.470;2022-10-17T07:42:26;97352.34;;;15.15;96.31
55271;BME280;41132;47.162;9.470;2022-10-17T07:44:53;97358.28;;;15.25;100.00
55271;BME280;41132;47.162;9.470;2022-10-17T07:47:18;97364.94;;;15.38;92.38
55271;BME280;41132;47.162;9.470;2022-10-17T07:49:43;97367.75;;;15.85;73.08
55271;BME280;41132;47.162;9.470;2022-10-17T07:52:13;97363.91;;;15.96;82.82
55271;BME280;41132;47.162;9.470;2022-10-17T07:54:42;97364.56;;;16.15;74.93
55271;BME280;41132;47.162;9.470;2022-10-17T07:57:07;97369.56;;;16.49;73.70
55271;BME280;41132;47.162;9.470;2022-10-17T07:59:34;97365.66;;;16.68;66.92
55271;BME280;41132;47.162;9.470;2022-10-17T08:01:59;97375.81;;;16.96;66.10
55271;BME280;41132;47.162;9.470;2022-10-17T08:04:25;97363.19;;;17.06;64.12
55271;BME280;41132;47.162;9.470;2022-10-17T08:06:51;97363.38;;;16.96;70.52
55271;BME280;41132;47.162;9.470;2022-10-17T08:09:17;97348.56;;;16.79;76.97
55271;BME280;41132;47.162;9.470;2022-10-17T08:11:42;97363.00;;;16.76;79.87
55271;BME280;41132;47.162;9.470;2022-10-17T08:14:13;97363.09;;;16.91;75.23
55271;BME280;41132;47.162;9.470;2022-10-17T08:16:41;97352.19;;;16.86;74.36
55271;BME280;41132;47.162;9.470;2022-10-17T08:19:06;97364.00;;;17.29;73.10
55271;BME280;41132;47.162;9.470;2022-10-17T08:21:33;97361.31;;;17.15;73.92
55271;BME280;41132;47.162;9.470;2022-10-17T08:23:59;97360.88;;;17.03;80.31
55271;BME280;41132;47.162;9.470;2022-10-17T08:26:26;97354.94;;;17.24;70.95
55271;BME280;41132;47.162;9.470;2022-10-17T08:28:51;97363.34;;;17.27;80.22
55271;BME280;41132;47.162;9.470;2022-10-17T08:31:18;97365.34;;;17.25;74.17
55271;BME280;41132;47.162;9.470;2022-10-17T08:33:44;97358.28;;;17.41;67.58
55271;BME280;41132;47.162;9.470;2022-10-17T08:36:12;97351.28;;;17.25;74.11
55271;BME280;41132;47.162;9.470;2022-10-17T08:38:38;97348.84;;;17.38;73.13
55271;BME280;41132;47.162;9.470;2022-10-17T08:46:43;97353.63;;;18.04;64.84
55271;BME280;41132;47.162;9.470;2022-10-17T08:49:32;97352.16;;;18.01;69.02
55271;BME280;41132;47.162;9.470;2022-10-17T08:54:52;97358.34;;;17.93;73.10
55271;BME280;41132;47.162;9.470;2022-10-17T08:57:17;97352.69;;;18.11;67.80
55271;BME280;41132;47.162;9.470;2022-10-17T08:59:44;97348.09;;;18.05;72.46
55271;BME280;41132;47.162;9.470;2022-10-17T09:02:20;97345.53;;;17.97;72.12
55271;BME280;41132;47.162;9.470;2022-10-17T09:10:17;97355.72;;;18.38;61.77
55271;BME280;41132;47.162;9.470;2022-10-17T09:15:44;97351.09;;;18.62;66.68
55271;BME280;41132;47.162;9.470;2022-10-17T09:20:48;97334.41;;;18.68;71.00
55271;BME280;41132;47.162;9.470;2022-10-17T09:23:19;97351.41;;;18.67;66.69
55271;BME280;41132;47.162;9.470;2022-10-17T09:25:49;97350.44;;;18.74;70.30
55271;BME280;41132;47.162;9.470;2022-10-17T09:28:37;97356.13;;;18.86;63.15
55271;BME280;41132;47.162;9.470;2022-10-17T09:31:08;97342.75;;;18.94;67.41
55271;BME280;41132;47.162;9.470;2022-10-17T09:33:41;97346.59;;;19.13;63.51
55271;BME280;41132;47.162;9.470;2022-10-17T09:36:19;97355.09;;;19.02;69.32
55271;BME280;41132;47.162;9.470;2022-10-17T09:38:52;97350.16;;;18.99;67.70
55271;BME280;41132;47.162;9.470;2022-10-17T09:41:21;97334.94;;;18.93;69.05
55271;BME280;41132;47.162;9.470;2022-10-17T09:43:47;97339.66;;;19.34;57.59
55271;BME280;41132;47.162;9.470;2022-10-17T09:49:00;97343.88;;;19.50;61.00
55271;BME280;41132;47.162;9.470;2022-10-17T09:51:27;97347.66;;;19.84;56.85
55271;BME280;41132;47.162;9.470;2022-10-17T09:54:02;97349.97;;;19.65;59.48
55271;BME280;41132;47.162;9.470;2022-10-17T09:56:28;97340.38;;;19.71;57.59
55271;BME280;41132;47.162;9.470;2022-10-17T09:58:57;97339.31;;;19.44;65.18
55271;BME280;41132;47.162;9.470;2022-10-17T10:01:29;97355.09;;;19.45;69.01
55271;BME280;41132;47.162;9.470;2022-10-17T10:04:15;97351.38;;;19.39;66.13
55271;BME280;41132;47.162;9.470;2022-10-17T10:07:04;97353.25;;;19.46;64.10
55271;BME280;41132;47.162;9.470;2022-10-17T10:09:31;97355.22;;;19.58;67.28
55271;BME280;41132;47.162;9.470;2022-10-17T10:11:58;97357.75;;;19.67;68.89
55271;BME280;41132;47.162;9.470;2022-10-17T10:14:29;97362.00;;;19.61;66.83
55271;BME280;41132;47.162;9.470;2022-10-17T10:16:58;97355.47;;;19.20;59.52
55271;BME280;41132;47.162;9.470;2022-10-17T10:22:16;97366.06;;;19.57;63.75
55271;BME280;41132;47.162;9.470;2022-10-17T10:24:41;97359.41;;;19.68;59.27
55271;BME280;41132;47.162;9.470;2022-10-17T10:27:14;97356.63;;;19.76;65.48
55271;BME280;41132;47.162;9.470;2022-10-17T10:29:42;97359.16;;;19.63;75.76
55271;BME280;41132;47.162;9.470;2022-10-17T10:32:20;97359.25;;;19.69;74.03
55271;BME280;41132;47.162;9.470;2022-10-17T10:34:52;97358.69;;;19.59;67.37
55271;BME280;41132;47.162;9.470;2022-10-17T10:39:50;97358.44;;;19.75;67.65
55271;BME280;41132;47.162;9.470;2022-10-17T10:42:36;97362.13;;;19.53;61.21
55271;BME280;41132;47.162;9.470;2022-10-17T10:45:10;97361.25;;;19.67;61.01
55271;BME280;41132;47.162;9.470;2022-10-17T10:47:49;97359.66;;;19.73;56.40
55271;BME280;41132;47.162;9.470;2022-10-17T10:50:21;97356.00;;;20.02;53.21
55271;BME280;41132;47.162;9.470;2022-10-17T10:55:35;97356.00;;;19.74;62.00
55271;BME280;41132;47.162;9.470;2022-10-17T10:58:03;97349.84;;;19.73;57.26
55271;BME280;41132;47.162;9.470;2022-10-17T11:00:33;97344.44;;;19.67;61.19
55271;BME280;41132;47.162;9.470;2022-10-17T11:05:38;97359.16;;;19.84;67.51
55271;BME280;41132;47.162;9.470;2022-10-17T11:10:56;97356.38;;;19.71;69.75
55271;BME280;41132;47.162;9.470;2022-10-17T11:13:26;97360.31;;;19.75;70.05
55271;BME280;41132;47.162;9.470;2022-10-17T11:16:17;97348.94;;;19.66;68.55
55271;BME280;41132;47.162;9.470;2022-10-17T11:18:54;97349.00;;;19.73;59.18
55271;BME280;41132;47.162;9.470;2022-10-17T11:21:37;97346.03;;;19.61;63.75
55271;BME280;41132;47.162;9.470;2022-10-17T11:24:27;97338.16;;;19.53;70.75
55271;BME280;41132;47.162;9.470;2022-10-17T11:26:55;97353.78;;;19.56;69.17
55271;BME280;41132;47.162;9.470;2022-10-17T11:29:27;97337.84;;;19.63;58.87
55271;BME280;41132;47.162;9.470;2022-10-17T11:31:55;97343.09;;;19.77;59.89
55271;BME280;41132;47.162;9.470;2022-10-17T11:34:25;97335.63;;;19.66;59.06
55271;BME280;41132;47.162;9.470;2022-10-17T11:37:18;97344.81;;;19.64;58.56
55271;BME280;41132;47.162;9.470;2022-10-17T11:40:20;97346.75;;;19.70;60.23
55271;BME280;41132;47.162;9.470;2022-10-17T11:42:59;97337.28;;;19.46;66.47
55271;BME280;41132;47.162;9.470;2022-10-17T11:45:29;97333.50;;;19.33;72.72
55271;BME280;41132;47.162;9.470;2022-10-17T11:48:00;97332.22;;;19.51;71.32
55271;BME280;41132;47.162;9.470;2022-10-17T11:50:31;97339.81;;;19.32;75.41
55271;BME280;41132;47.162;9.470;2022-10-17T11:53:01;97331.91;;;19.17;74.80
55271;BME280;41132;47.162;9.470;2022-10-17T11:55:29;97334.00;;;19.22;76.49
55271;BME280;41132;47.162;9.470;2022-10-17T12:03:28;97332.09;;;19.16;79.51
55271;BME280;41132;47.162;9.470;2022-10-17T12:06:08;97322.03;;;19.11;75.03
55271;BME280;41132;47.162;9.470;2022-10-17T12:13:54;97311.03;;;19.14;79.77
55271;BME280;41132;47.162;9.470;2022-10-17T12:18:47;97321.22;;;19.11;78.10
55271;BME280;41132;47.162;9.470;2022-10-17T12:21:14;97314.28;;;19.16;80.53
55271;BME280;41132;47.162;9.470;2022-10-17T12:23:40;97315.78;;;19.19;76.86
55271;BME280;41132;47.162;9.470;2022-10-17T12:26:09;97314.13;;;19.18;78.16
55271;BME280;41132;47.162;9.470;2022-10-17T12:28:45;97313.22;;;19.11;79.04
55271;BME280;41132;47.162;9.470;2022-10-17T12:33:52;97307.00;;;19.25;77.76
55271;BME280;41132;47.162;9.470;2022-10-17T12:54:39;97301.38;;;19.35;82.63
55271;BME280;41132;47.162;9.470;2022-10-17T12:57:16;97297.25;;;19.32;85.32
55271;BME280;41132;47.162;9.470;2022-10-17T12:59:44;97304.63;;;19.30;85.86
55271;BME280;41132;47.162;9.470;2022-10-17T13:02:17;97301.91;;;19.24;87.53
55271;BME280;41132;47.162;9.470;2022-10-17T13:04:44;97294.53;;;19.26;86.75
55271;BME280;41132;47.162;9.470;2022-10-17T13:07:20;97298.22;;;19.25;91.21
55271;BME280;41132;47.162;9.470;2022-10-17T13:09:48;97295.38;;;19.26;91.99
55271;BME280;41132;47.162;9.470;2022-10-17T13:12:20;97299.47;;;19.29;94.26
55271;BME280;41132;47.162;9.470;2022-10-17T13:14:49;97299.81;;;19.19;94.57
55271;BME280;41132;47.162;9.470;2022-10-17T13:17:24;97301.06;;;19.23;95.37
55271;BME280;41132;47.162;9.470;2022-10-17T13:19:50;97305.22;;;19.32;94.61
55271;BME280;41132;47.162;9.470;2022-10-17T13:22:22;97302.47;;;19.19;94.08
55271;BME280;41132;47.162;9.470;2022-10-17T13:24:49;97305.38;;;19.24;92.11
55271;BME280;41132;47.162;9.470;2022-10-17T13:27:30;97304.09;;;19.20;92.79
55271;BME280;41132;47.162;9.470;2022-10-17T13:29:58;97292.75;;;19.11;92.47
55271;BME280;41132;47.162;9.470;2022-10-17T13:32:26;97303.22;;;19.13;92.87
55271;BME280;41132;47.162;9.470;2022-10-17T13:35:06;97295.59;;;19.10;92.90
55271;BME280;41132;47.162;9.470;2022-10-17T13:37:33;97298.41;;;19.02;96.46
55271;BME280;41132;47.162;9.470;2022-10-17T13:39:59;97303.72;;;19.02;95.32
55271;BME280;41132;47.162;9.470;2022-10-17T13:42:27;97304.38;;;19.04;93.83
55271;BME280;41132;47.162;9.470;2022-10-17T13:44:54;97302.44;;;18.97;95.59
55271;BME280;41132;47.162;9.470;2022-10-17T13:47:25;97310.25;;;18.99;94.48
55271;BME280;41132;47.162;9.470;2022-10-17T13:49:51;97301.38;;;18.92;95.15
55271;BME280;41132;47.162;9.470;2022-10-17T13:52:19;97308.34;;;18.93;93.60
55271;BME280;41132;47.162;9.470;2022-10-17T13:54:47;97313.56;;;19.01;95.14
55271;BME280;41132;47.162;9.470;2022-10-17T13:57:25;97320.81;;;18.92;96.22
55271;BME280;41132;47.162;9.470;2022-10-17T13:59:54;97322.59;;;18.85;98.07
55271;BME280;41132;47.162;9.470;2022-10-17T14:02:26;97321.38;;;18.88;94.60
55271;BME280;41132;47.162;9.470;2022-10-17T14:05:00;97321.66;;;18.78;97.95
55271;BME280;41132;47.162;9.470;2022-10-17T14:07:28;97323.34;;;18.79;100.00
55271;BME280;41132;47.162;9.470;2022-10-17T14:09:55;97330.66;;;18.77;98.70
55271;BME280;41132;47.162;9.470;2022-10-17T14:12:21;97325.34;;;18.77;99.38
55271;BME280;41132;47.162;9.470;2022-10-17T14:14:52;97328.47;;;18.66;100.00
55271;BME280;41132;47.162;9.470;2022-10-17T14:17:26;97329.50;;;18.65;100.00
55271;BME280;41132;47.162;9.470;2022-10-17T14:19:58;97329.84;;;18.62;100.00
55271;BME280;41132;47.162;9.470;2022-10-17T14:22:28;97319.34;;;18.53;100.00
55271;BME280;41132;47.162;9.470;2022-10-17T14:24:54;97326.91;;;18.56;100.00
55271;BME280;41132;47.162;9.470;2022-10-17T14:27:28;97336.28;;;18.52;100.00
55271;BME280;41132;47.162;9.470;2022-10-17T14:29:56;97342.06;;;18.41;100.00
55271;BME280;41132;47.162;9.470;2022-10-17T14:32:26;97336.94;;;18.40;100.00
55271;BME280;41132;47.162;9.470;2022-10-17T14:34:54;97338.97;;;18.38;100.00
55271;BME280;41132;47.162;9.470;2022-10-17T14:37:42;97350.50;;;18.30;100.00
55271;BME280;41132;47.162;9.470;2022-10-17T14:40:17;97347.56;;;18.25;100.00
55271;BME280;41132;47.162;9.470;2022-10-17T14:42:43;97353.91;;;18.24;100.00
55271;BME280;41132;47.162;9.470;2022-10-17T14:45:20;97348.13;;;18.20;100.00
55271;BME280;41132;47.162;9.470;2022-10-17T14:47:51;97348.13;;;18.20;100.00
55271;BME280;41132;47.162;9.470;2022-10-17T14:50:25;97348.13;;;18.20;100.00
55271;BME280;41132;47.162;9.470;2022-10-17T14:53:24;97351.97;;;18.18;100.00
55271;BME280;41132;47.162;9.470;2022-10-17T14:55:57;97351.31;;;18.15;100.00
55271;BME280;41132;47.162;9.470;2022-10-17T14:58:28;97348.03;;;18.13;100.00
55271;BME280;41132;47.162;9.470;2022-10-17T15:00:57;97340.59;;;18.09;100.00
55271;BME280;41132;47.162;9.470;2022-10-17T15:03:23;97345.91;;;18.09;100.00
55271;BME280;41132;47.162;9.470;2022-10-17T15:05:52;97347.09;;;18.06;100.00
55271;BME280;41132;47.162;9.470;2022-10-17T15:08:20;97349.13;;;18.04;100.00
55271;BME280;41132;47.162;9.470;2022-10-17T15:10:47;97351.13;;;18.02;100.00